createdAt,value
2022-10-06T00:00:24.266Z,7.73
2022-10-06T00:02:53.499Z,6.90
2022-10-06T00:05:22.695Z,6.97
2022-10-06T00:07:53.417Z,7.03
2022-10-06T00:10:22.736Z,6.30
2022-10-06T00:12:52.652Z,6.73
2022-10-06T00:15:24.802Z,5.90
2022-10-06T00:17:54.365Z,8.00
2022-10-06T00:20:23.967Z,6.67
2022-10-06T00:22:56.418Z,6.50
2022-10-06T00:25:28.280Z,6.23
2022-10-06T00:27:57.806Z,7.20
2022-10-06T00:30:29.727Z,5.73
2022-10-06T00:33:01.071Z,6.83
2022-10-06T00:35:32.547Z,6.63
2022-10-06T00:38:03.688Z,6.57
2022-10-06T00:40:33.765Z,5.93
2022-10-06T00:43:05.903Z,5.97
2022-10-06T00:45:38.017Z,6.10
2022-10-06T00:48:11.678Z,6.53
2022-10-06T00:50:41.167Z,6.10
2022-10-06T00:53:12.138Z,5.80
2022-10-06T00:55:41.275Z,6.07
2022-10-06T00:58:11.846Z,7.27
2022-10-06T01:00:41.193Z,5.90
2022-10-06T01:03:13.830Z,6.50
2022-10-06T01:05:47.007Z,6.23
2022-10-06T01:08:18.050Z,8.17
2022-10-06T01:10:47.177Z,6.63
2022-10-06T01:13:17.651Z,6.40
2022-10-06T01:15:51.964Z,6.53
2022-10-06T01:18:23.432Z,6.37
2022-10-06T01:20:55.707Z,6.70
2022-10-06T01:23:26.300Z,6.43
2022-10-06T01:25:55.471Z,6.70
2022-10-06T01:28:24.893Z,5.90
2022-10-06T01:30:55.741Z,5.73
2022-10-06T01:33:25.858Z,6.40
2022-10-06T01:35:55.514Z,6.00
2022-10-06T01:38:26.935Z,5.50
2022-10-06T01:40:56.534Z,6.40
2022-10-06T01:43:25.796Z,6.10
2022-10-06T01:45:56.306Z,6.13
2022-10-06T01:48:27.039Z,6.57
2022-10-06T01:50:57.232Z,6.00
2022-10-06T01:53:28.356Z,5.73
2022-10-06T01:56:00.274Z,6.47
2022-10-06T01:58:30.318Z,5.17
2022-10-06T02:00:59.850Z,7.20
2022-10-06T02:03:29.049Z,6.33
2022-10-06T02:05:58.461Z,5.97
2022-10-06T02:08:29.343Z,11.20
2022-10-06T02:10:58.961Z,6.27
2022-10-06T02:13:30.027Z,9.20
2022-10-06T02:16:00.333Z,5.57
2022-10-06T02:18:30.597Z,5.63
2022-10-06T02:21:00.261Z,5.63
2022-10-06T02:23:31.649Z,8.00
2022-10-06T02:26:01.741Z,5.93
2022-10-06T02:28:32.197Z,6.07
2022-10-06T02:31:05.582Z,5.87
2022-10-06T02:33:35.429Z,5.40
2022-10-06T02:36:06.644Z,9.53
2022-10-06T02:38:37.438Z,5.87
2022-10-06T02:41:07.726Z,5.90
2022-10-06T02:43:38.090Z,5.73
2022-10-06T02:46:09.518Z,6.83
2022-10-06T02:48:39.828Z,8.03
2022-10-06T02:51:11.614Z,6.50
2022-10-06T02:53:43.598Z,9.20
2022-10-06T02:56:16.186Z,6.43
2022-10-06T02:58:46.011Z,10.43
2022-10-06T03:01:17.405Z,6.63
2022-10-06T03:03:48.011Z,6.17
2022-10-06T03:06:25.412Z,6.40
2022-10-06T03:08:58.644Z,8.97
2022-10-06T03:11:29.617Z,7.43
2022-10-06T03:13:59.249Z,7.60
2022-10-06T03:16:30.591Z,7.40
2022-10-06T03:19:00.594Z,6.00
2022-10-06T03:21:31.630Z,6.33
2022-10-06T03:24:03.050Z,5.87
2022-10-06T03:26:33.919Z,6.37
2022-10-06T03:29:05.943Z,7.03
2022-10-06T03:31:38.940Z,6.03
2022-10-06T03:34:08.501Z,6.13
2022-10-06T03:36:39.560Z,6.50
2022-10-06T03:39:10.578Z,9.20
2022-10-06T03:41:40.483Z,6.63
2022-10-06T03:44:10.216Z,6.77
2022-10-06T03:46:39.765Z,8.53
2022-10-06T03:49:09.815Z,5.97
2022-10-06T03:51:40.588Z,7.67
2022-10-06T03:54:12.652Z,5.83
2022-10-06T03:56:43.354Z,7.47
2022-10-06T03:59:14.186Z,7.90
2022-10-06T04:01:45.582Z,7.47
2022-10-06T04:04:14.923Z,7.53
2022-10-06T04:06:45.169Z,11.30
2022-10-06T04:09:18.363Z,7.73
2022-10-06T04:11:47.659Z,7.37
2022-10-06T04:14:17.742Z,7.00
2022-10-06T04:16:48.666Z,7.73
2022-10-06T04:19:19.058Z,7.70
2022-10-06T04:21:48.961Z,7.70
2022-10-06T04:24:19.674Z,7.70
2022-10-06T04:26:50.262Z,8.27
2022-10-06T04:29:19.607Z,7.70
2022-10-06T04:31:50.664Z,9.03
2022-10-06T04:34:21.069Z,8.30
2022-10-06T04:36:50.597Z,9.10
2022-10-06T04:39:21.647Z,7.80
2022-10-06T04:41:51.274Z,7.30
2022-10-06T04:44:21.717Z,7.67
2022-10-06T04:46:54.576Z,8.73
2022-10-06T04:49:24.309Z,9.07
2022-10-06T04:51:53.606Z,10.83
2022-10-06T04:54:24.263Z,7.07
2022-10-06T04:56:54.030Z,8.20
2022-10-06T04:59:47.873Z,7.83
2022-10-06T05:02:18.243Z,7.80
2022-10-06T05:04:49.595Z,9.23
2022-10-06T05:07:19.381Z,10.80
2022-10-06T05:09:54.418Z,7.40
2022-10-06T05:12:24.169Z,10.13
2022-10-06T05:15:30.967Z,7.00
2022-10-06T05:18:02.115Z,8.57
2022-10-06T05:20:31.747Z,8.00
2022-10-06T05:23:10.681Z,7.83
2022-10-06T05:25:55.807Z,7.67
2022-10-06T05:28:26.164Z,8.97
2022-10-06T06:18:45.922Z,12.13
2022-10-06T06:21:16.005Z,15.83
2022-10-06T06:23:47.601Z,13.50
2022-10-06T06:26:18.722Z,11.23
2022-10-06T06:28:48.737Z,10.03
2022-10-06T06:31:21.502Z,10.50
2022-10-06T06:33:53.953Z,10.50
2022-10-06T06:36:26.029Z,11.53
2022-10-06T06:38:58.770Z,9.73
2022-10-06T06:41:29.850Z,12.10
2022-10-06T06:44:00.221Z,9.90
2022-10-06T06:46:32.364Z,9.67
2022-10-06T06:49:05.412Z,11.20
2022-10-06T06:51:35.744Z,9.33
2022-10-06T06:54:06.145Z,7.67
2022-10-06T06:56:36.066Z,9.83
2022-10-06T06:59:10.882Z,13.53
2022-10-06T07:01:50.491Z,8.93
2022-10-06T07:04:21.166Z,9.90
2022-10-06T07:06:58.155Z,9.30
2022-10-06T07:09:27.755Z,8.53
2022-10-06T07:11:57.504Z,8.63
2022-10-06T07:14:26.750Z,9.60
2022-10-06T07:38:23.464Z,7.90
2022-10-06T07:41:23.909Z,9.90
2022-10-06T07:44:23.409Z,8.97
2022-10-06T08:16:38.080Z,7.80
2022-10-06T08:19:07.620Z,8.47
2022-10-06T08:21:36.827Z,7.47
2022-10-06T08:24:06.317Z,8.60
2022-10-06T08:26:36.161Z,8.17
2022-10-06T08:29:05.838Z,8.07
2022-10-06T08:31:37.066Z,6.50
2022-10-06T08:34:11.807Z,8.80
2022-10-06T08:36:52.118Z,7.33
2022-10-06T08:39:31.454Z,7.33
2022-10-06T08:42:00.723Z,7.87
2022-10-06T08:44:34.689Z,7.03
2022-10-06T08:47:12.141Z,8.10
2022-10-06T08:49:44.910Z,11.63
2022-10-06T08:52:22.595Z,9.23
2022-10-06T08:54:59.559Z,10.10
2022-10-06T08:57:34.341Z,9.03
2022-10-06T09:00:04.277Z,8.00
2022-10-06T09:02:41.725Z,6.90
2022-10-06T09:05:14.626Z,7.10
2022-10-06T09:07:52.652Z,7.63
2022-10-06T09:10:32.029Z,7.50
2022-10-06T09:13:06.766Z,6.27
2022-10-06T09:15:41.407Z,7.27
2022-10-06T09:18:16.703Z,7.70
2022-10-06T09:20:51.131Z,5.63
2022-10-06T09:23:42.317Z,5.87
2022-10-06T09:26:14.451Z,6.73
2022-10-06T09:28:46.630Z,9.07
2022-10-06T09:31:23.064Z,6.47
2022-10-06T09:33:55.643Z,10.40
2022-10-06T09:36:24.883Z,8.27
2022-10-06T09:38:55.598Z,7.10
2022-10-06T09:41:27.694Z,7.07
2022-10-06T09:43:59.670Z,16.37
2022-10-06T09:46:39.923Z,12.20
2022-10-06T09:49:22.289Z,10.90
2022-10-06T09:52:12.272Z,7.37
2022-10-06T09:54:43.361Z,10.33
2022-10-06T09:57:16.472Z,7.97
2022-10-06T09:59:47.081Z,6.03
2022-10-06T10:02:31.150Z,7.00
2022-10-06T10:05:02.485Z,7.60
2022-10-06T10:07:33.232Z,7.50
2022-10-06T10:10:29.885Z,7.00
2022-10-06T10:13:00.482Z,7.80
2022-10-06T10:15:42.782Z,6.37
2022-10-06T10:18:16.940Z,8.10
2022-10-06T10:20:55.913Z,6.30
2022-10-06T10:23:31.567Z,5.30
2022-10-06T10:26:27.218Z,5.37
2022-10-06T10:29:33.043Z,7.30
2022-10-06T10:32:12.012Z,4.03
2022-10-06T10:35:09.746Z,3.80
2022-10-06T10:37:47.582Z,3.80
2022-10-06T10:40:36.023Z,4.17
2022-10-06T10:43:12.923Z,4.93
2022-10-06T10:45:46.350Z,3.87
2022-10-06T10:48:20.148Z,3.50
2022-10-06T10:50:57.646Z,3.73
2022-10-06T10:53:35.657Z,5.97
2022-10-06T10:56:10.442Z,3.93
2022-10-06T10:58:41.990Z,4.83
2022-10-06T11:01:25.899Z,5.97
2022-10-06T11:03:58.986Z,3.83
2022-10-06T11:06:51.597Z,4.50
2022-10-06T11:09:27.629Z,7.27
2022-10-06T11:12:29.859Z,3.67
2022-10-06T11:15:02.274Z,4.73
2022-10-06T12:17:44.071Z,4.03
2022-10-06T12:20:17.999Z,4.00
2022-10-06T12:22:52.384Z,4.00
2022-10-06T12:25:26.964Z,4.00
2022-10-06T12:28:05.355Z,3.90
2022-10-06T12:30:47.267Z,3.80
2022-10-06T12:33:21.273Z,4.37
2022-10-06T12:36:03.161Z,5.77
2022-10-06T12:38:44.469Z,3.23
2022-10-06T12:41:14.691Z,3.67
2022-10-06T12:43:55.321Z,3.77
2022-10-06T12:46:41.265Z,4.00
2022-10-06T12:49:45.017Z,3.80
2022-10-06T12:52:40.811Z,4.03
2022-10-06T12:55:41.247Z,4.63
2022-10-06T12:58:19.746Z,4.47
2022-10-06T13:00:49.482Z,3.73
2022-10-06T13:03:21.034Z,4.00
2022-10-06T13:05:54.474Z,4.17
2022-10-06T13:08:25.571Z,3.87
2022-10-06T13:11:17.533Z,5.00
2022-10-06T13:13:50.725Z,4.50
2022-10-06T14:17:23.889Z,4.07
2022-10-06T14:19:56.318Z,4.03
2022-10-06T14:22:33.106Z,4.27
2022-10-06T14:25:02.848Z,4.70
2022-10-06T14:27:32.117Z,3.27
2022-10-06T14:30:01.793Z,4.43
2022-10-06T14:32:32.834Z,4.13
2022-10-06T14:35:02.703Z,4.30
2022-10-06T14:37:33.823Z,5.23
2022-10-06T14:40:03.457Z,4.10
2022-10-06T14:42:32.857Z,5.03
2022-10-06T14:45:02.973Z,7.77
2022-10-06T14:47:33.853Z,4.70
2022-10-06T14:50:03.224Z,5.47
2022-10-06T14:52:32.787Z,7.00
2022-10-06T14:55:02.274Z,4.47
2022-10-06T14:57:31.555Z,4.00
2022-10-06T15:00:01.192Z,4.10
2022-10-06T15:02:32.711Z,4.60
2022-10-06T15:05:01.945Z,4.33
2022-10-06T15:07:49.019Z,4.53
2022-10-06T15:10:18.443Z,4.43
2022-10-06T15:12:47.759Z,4.17
2022-10-06T15:25:29.194Z,5.53
2022-10-06T15:29:04.651Z,4.43
2022-10-06T16:15:17.792Z,7.07
2022-10-06T16:17:46.870Z,6.40
2022-10-06T16:20:18.228Z,5.93
2022-10-06T16:22:47.406Z,6.00
2022-10-06T16:25:16.605Z,8.30
2022-10-06T16:27:45.754Z,6.90
2022-10-06T16:30:16.411Z,6.27
2022-10-06T16:32:45.612Z,5.43
2022-10-06T16:35:18.226Z,5.80
2022-10-06T16:37:50.424Z,7.13
2022-10-06T16:40:19.707Z,5.93
2022-10-06T16:42:48.841Z,6.43
2022-10-06T16:45:20.031Z,7.17
2022-10-06T16:47:50.695Z,6.87
2022-10-06T16:50:19.923Z,10.53
2022-10-06T16:52:48.776Z,8.37
2022-10-06T16:55:18.240Z,7.17
2022-10-06T16:57:47.636Z,7.63
2022-10-06T17:00:18.681Z,8.07
2022-10-06T17:02:48.207Z,8.30
2022-10-06T17:05:17.884Z,9.17
2022-10-06T17:07:47.211Z,8.90
2022-10-06T17:10:20.597Z,8.70
2022-10-06T17:12:50.854Z,10.60
2022-10-06T17:15:21.586Z,10.37
2022-10-06T17:17:50.925Z,14.43
2022-10-06T17:20:20.722Z,17.07
2022-10-06T17:22:50.320Z,14.27
2022-10-06T17:25:19.957Z,16.40
2022-10-06T17:27:49.256Z,14.13
2022-10-06T17:30:20.965Z,12.80
2022-10-06T17:32:51.646Z,10.73
2022-10-06T17:35:21.736Z,10.97
2022-10-06T17:37:51.368Z,9.23
2022-10-06T17:40:20.722Z,9.40
2022-10-06T17:42:49.954Z,8.30
2022-10-06T17:45:21.384Z,8.60
2022-10-06T17:47:52.933Z,7.73
2022-10-06T17:50:57.361Z,8.30
2022-10-06T17:53:27.571Z,9.80
2022-10-06T17:55:58.527Z,8.73
2022-10-06T17:58:29.894Z,9.70
2022-10-06T18:01:06.003Z,8.97
2022-10-06T18:03:41.696Z,8.60
2022-10-06T18:06:12.215Z,11.10
2022-10-06T18:08:42.885Z,9.23
2022-10-06T18:11:30.345Z,10.10
2022-10-06T18:14:00.526Z,11.17
2022-10-06T18:16:32.315Z,9.47
2022-10-06T18:19:03.980Z,10.90
2022-10-06T18:21:37.392Z,8.67
2022-10-06T18:24:08.686Z,10.57
2022-10-06T18:26:38.413Z,9.53
2022-10-06T18:29:08.788Z,11.53
2022-10-06T18:31:39.233Z,10.17
2022-10-06T18:37:01.605Z,9.10
2022-10-06T18:39:32.094Z,8.97
2022-10-06T18:42:09.344Z,8.53
2022-10-06T18:44:56.736Z,7.90
2022-10-06T18:47:45.503Z,8.87
2022-10-06T18:50:16.646Z,7.73
2022-10-06T18:52:45.970Z,8.87
2022-10-06T18:55:15.511Z,7.87
2022-10-06T18:57:45.752Z,7.97
2022-10-06T19:00:15.495Z,9.67
2022-10-06T19:02:48.289Z,7.87
2022-10-06T19:05:19.497Z,8.20
2022-10-06T19:07:50.916Z,8.80
2022-10-06T19:10:20.960Z,9.77
2022-10-06T19:12:53.761Z,8.37
2022-10-06T19:15:23.355Z,8.03
2022-10-06T19:17:53.817Z,9.00
2022-10-06T19:20:24.754Z,10.13
2022-10-06T19:22:54.672Z,8.50
2022-10-06T19:25:26.886Z,8.20
2022-10-06T19:27:56.381Z,8.80
2022-10-06T19:30:25.956Z,8.20
2022-10-06T19:32:55.293Z,8.70
2022-10-06T19:35:26.128Z,7.50
2022-10-06T19:37:58.019Z,8.70
2022-10-06T19:40:27.965Z,8.43
2022-10-06T19:42:56.187Z,9.50
2022-10-06T19:45:25.184Z,8.93
2022-10-06T19:47:55.406Z,7.90
2022-10-06T19:50:26.193Z,9.00
2022-10-06T19:52:55.526Z,8.40
2022-10-06T19:55:25.231Z,8.10
2022-10-06T19:57:54.781Z,8.40
2022-10-06T20:00:24.476Z,8.20
2022-10-06T20:02:53.733Z,7.93
2022-10-06T20:05:22.954Z,7.43
2022-10-06T20:07:53.973Z,11.33
2022-10-06T20:10:22.973Z,7.77
2022-10-06T20:12:52.345Z,7.90
2022-10-06T20:15:22.759Z,7.97
2022-10-06T20:17:52.110Z,8.27
2022-10-06T20:20:21.542Z,10.13
2022-10-06T20:22:54.025Z,7.63
2022-10-06T20:25:23.815Z,8.40
2022-10-06T20:27:52.949Z,13.13
2022-10-06T20:30:22.345Z,8.50
2022-10-06T20:32:53.634Z,8.60
2022-10-06T20:35:22.766Z,6.50
2022-10-06T20:37:56.189Z,8.63
2022-10-06T20:40:39.425Z,9.00
2022-10-06T20:43:08.865Z,7.43
2022-10-06T20:45:38.645Z,7.13
2022-10-06T20:48:07.849Z,9.83
2022-10-06T20:50:37.295Z,7.40
2022-10-06T20:53:08.026Z,7.87
2022-10-06T20:55:37.308Z,7.57
2022-10-06T20:58:06.601Z,6.50
2022-10-06T21:00:35.771Z,7.97
2022-10-06T21:03:05.252Z,7.60
2022-10-06T21:05:34.427Z,8.20
2022-10-06T21:08:04.027Z,9.37
2022-10-06T21:10:34.808Z,10.50
2022-10-06T21:13:04.463Z,9.50
2022-10-06T21:15:33.604Z,8.60
2022-10-06T21:18:05.735Z,7.93
2022-10-06T21:20:35.219Z,8.10
2022-10-06T21:23:10.776Z,9.43
2022-10-06T22:10:39.044Z,8.53
2022-10-06T22:25:31.233Z,7.37
2022-10-06T22:28:01.731Z,8.17
2022-10-06T22:30:30.756Z,9.43
2022-10-06T22:33:00.106Z,7.43
2022-10-06T22:35:29.154Z,7.57
2022-10-06T22:37:58.410Z,10.30
2022-10-06T22:40:27.412Z,17.17
2022-10-06T22:42:56.590Z,8.40
2022-10-06T22:45:27.211Z,7.10
2022-10-06T22:47:56.279Z,7.27
2022-10-06T22:50:25.339Z,7.33
2022-10-06T22:52:54.679Z,8.43
2022-10-06T22:55:24.082Z,7.90
2022-10-06T22:57:53.801Z,9.50
2022-10-06T23:00:46.961Z,11.43
